Time;durP1;ratioP1;P1;durP2;ratioP2;P2;SDS_P1;SDS_P2;PMS_P1;PMS_P2;Temp;Humidity;BMP_temperature;BMP_pressure;BME280_temperature;BME280_humidity;BME280_pressure;Samples;Min_cycle;Max_cycle;Signal;HPM_P1;HPM_P2
2022/02/20 00:02:06;;;;;;;52.20;7.82;;;;;;;;;;5015646;28;20403;-52
2022/02/20 00:04:32;;;;;;;57.30;7.25;;;;;;;;;;5021867;28;20499;-57
2022/02/20 00:06:57;;;;;;;54.53;6.78;;;;;;;;;;5017311;28;20049;-50
2022/02/20 00:09:23;;;;;;;55.72;7.90;;;;;;;;;;5019588;28;20041;-52
2022/02/20 00:11:48;;;;;;;58.90;7.78;;;;;;;;;;5019784;28;20026;-53
2022/02/20 00:14:14;;;;;;;48.78;6.25;;;;;;;;;;5018616;28;20029;-52
2022/02/20 00:16:39;;;;;;;56.97;6.60;;;;;;;;;;5015365;28;20061;-52
2022/02/20 00:19:05;;;;;;;52.15;7.53;;;;;;;;;;5015285;28;20073;-52
2022/02/20 00:21:31;;;;;;;58.58;8.18;;;;;;;;;;5014492;28;20425;-55
2022/02/20 00:23:56;;;;;;;65.50;8.05;;;;;;;;;;5020432;28;20499;-50
2022/02/20 00:26:21;;;;;;;47.15;8.07;;;;;;;;;;5008467;28;20480;-53
2022/02/20 00:28:47;;;;;;;54.60;7.20;;;;;;;;;;5014593;28;20480;-54
2022/02/20 00:31:12;;;;;;;53.10;7.47;;;;;;;;;;5015780;28;20042;-54
2022/02/20 00:33:38;;;;;;;58.95;7.15;;;;;;;;;;5020035;28;20026;-52
2022/02/20 00:36:04;;;;;;;49.47;7.35;;;;;;;;;;5017533;28;20029;-50
2022/02/20 00:38:29;;;;;;;65.50;7.72;;;;;;;;;;5015847;28;20034;-49
2022/02/20 00:40:55;;;;;;;80.20;9.07;;;;;;;;;;5018792;28;20029;-54
2022/02/20 00:43:20;;;;;;;57.78;6.18;;;;;;;;;;5016664;28;20495;-51
2022/02/20 00:45:46;;;;;;;43.35;7.07;;;;;;;;;;5017081;28;20060;-56
2022/02/20 00:48:17;;;;;;;59.67;6.85;;;;;;;;;;5012667;28;20033;-57
2022/02/20 00:50:43;;;;;;;52.50;6.18;;;;;;;;;;5014593;28;20041;-53
2022/02/20 00:53:09;;;;;;;55.60;8.82;;;;;;;;;;5018315;28;20041;-51
2022/02/20 00:55:34;;;;;;;53.08;6.93;;;;;;;;;;5016774;28;20385;-51
2022/02/20 00:58:01;;;;;;;51.42;6.13;;;;;;;;;;5014266;28;20159;-49
2022/02/20 01:00:26;;;;;;;50.50;6.30;;;;;;;;;;5011097;28;20065;-54
2022/02/20 01:02:51;;;;;;;62.00;7.75;;;;;;;;;;5023029;28;20135;-52
2022/02/20 01:05:17;;;;;;;57.55;6.75;;;;;;;;;;5024571;28;20503;-53
2022/02/20 01:07:43;;;;;;;66.80;8.95;;;;;;;;;;5016701;28;20025;-53
2022/02/20 01:10:10;;;;;;;59.13;7.53;;;;;;;;;;5019473;28;20045;-55
2022/02/20 01:12:39;;;;;;;67.55;6.60;;;;;;;;;;5022730;28;20029;-53
2022/02/20 01:15:05;;;;;;;71.30;9.88;;;;;;;;;;5019182;28;20567;-53
2022/02/20 01:17:31;;;;;;;56.50;6.57;;;;;;;;;;5022245;28;20051;-54
2022/02/20 01:19:56;;;;;;;69.43;8.23;;;;;;;;;;5020020;28;20442;-51
2022/02/20 01:22:22;;;;;;;63.03;6.50;;;;;;;;;;5012467;28;20175;-54
2022/02/20 01:24:48;;;;;;;52.00;8.18;;;;;;;;;;5020698;28;20574;-54
2022/02/20 01:27:13;;;;;;;65.15;7.45;;;;;;;;;;5016405;28;20352;-53
2022/02/20 01:29:39;;;;;;;69.22;7.25;;;;;;;;;;5020175;28;20408;-52
2022/02/20 01:32:05;;;;;;;53.47;7.47;;;;;;;;;;5017169;28;20087;-54
2022/02/20 01:34:32;;;;;;;46.72;7.45;;;;;;;;;;5023593;28;20098;-52
2022/02/20 01:36:57;;;;;;;63.22;7.70;;;;;;;;;;5022143;28;20044;-52
2022/02/20 01:39:23;;;;;;;51.03;9.15;;;;;;;;;;5022994;28;20037;-53
2022/02/20 01:41:53;;;;;;;47.83;6.65;;;;;;;;;;5028492;28;20033;-49
2022/02/20 01:44:19;;;;;;;59.90;7.85;;;;;;;;;;5023402;28;20041;-50
2022/02/20 01:46:46;;;;;;;43.28;7.53;;;;;;;;;;5025622;28;20103;-54
2022/02/20 01:49:15;;;;;;;63.70;7.70;;;;;;;;;;5022676;28;20065;-50
2022/02/20 01:51:41;;;;;;;54.53;7.03;;;;;;;;;;5024863;28;20048;-50
2022/02/20 01:54:06;;;;;;;29.58;5.40;;;;;;;;;;5023660;28;20033;-54
2022/02/20 01:56:33;;;;;;;41.97;6.35;;;;;;;;;;5025081;28;20033;-51
2022/02/20 01:58:59;;;;;;;57.30;6.45;;;;;;;;;;5024945;28;20034;-52
2022/02/20 02:01:25;;;;;;;67.53;7.47;;;;;;;;;;5023294;28;20500;-56
2022/02/20 02:03:51;;;;;;;55.63;6.63;;;;;;;;;;5026463;28;20033;-55
2022/02/20 02:06:16;;;;;;;59.33;9.00;;;;;;;;;;5023196;28;20044;-54
2022/02/20 02:08:42;;;;;;;49.90;6.78;;;;;;;;;;5026237;28;20052;-53
2022/02/20 02:11:08;;;;;;;51.67;7.00;;;;;;;;;;5018808;28;20046;-54
2022/02/20 02:13:34;;;;;;;56.05;6.18;;;;;;;;;;5020794;28;20061;-52
2022/02/20 02:16:00;;;;;;;49.92;5.05;;;;;;;;;;5018739;28;20103;-54
2022/02/20 02:18:25;;;;;;;51.10;5.47;;;;;;;;;;5020674;28;20136;-54
2022/02/20 02:20:51;;;;;;;52.70;8.65;;;;;;;;;;5021162;28;20113;-51
2022/02/20 02:23:18;;;;;;;49.95;7.05;;;;;;;;;;5020015;28;20121;-54
2022/02/20 02:25:44;;;;;;;50.47;6.75;;;;;;;;;;5021413;28;20060;-55
2022/02/20 02:28:10;;;;;;;45.78;6.05;;;;;;;;;;5022495;28;20464;-53
2022/02/20 02:30:36;;;;;;;64.72;9.13;;;;;;;;;;5018799;28;20045;-54
2022/02/20 02:33:02;;;;;;;52.30;6.57;;;;;;;;;;5019628;28;20037;-52
2022/02/20 02:35:27;;;;;;;29.42;5.68;;;;;;;;;;5021901;28;20033;-55
2022/02/20 02:37:53;;;;;;;48.65;5.50;;;;;;;;;;5021568;28;20037;-54
2022/02/20 02:40:20;;;;;;;44.30;6.75;;;;;;;;;;5021798;28;20036;-53
2022/02/20 02:42:45;;;;;;;54.60;6.07;;;;;;;;;;5017965;28;20033;-50
2022/02/20 02:45:11;;;;;;;51.80;7.05;;;;;;;;;;5023703;28;20033;-53
2022/02/20 02:47:36;;;;;;;49.95;6.20;;;;;;;;;;5024194;28;20041;-55
2022/02/20 02:50:02;;;;;;;38.97;6.30;;;;;;;;;;5021018;28;20029;-54
2022/02/20 02:52:28;;;;;;;53.05;5.00;;;;;;;;;;5023759;28;20068;-50
2022/02/20 02:54:53;;;;;;;46.42;5.80;;;;;;;;;;5026542;28;20049;-52
2022/02/20 02:57:19;;;;;;;50.30;5.78;;;;;;;;;;5024254;28;20034;-49
2022/02/20 02:59:44;;;;;;;45.80;6.65;;;;;;;;;;5022498;28;20021;-50
2022/02/20 03:02:10;;;;;;;36.65;5.85;;;;;;;;;;5019653;28;20495;-52
2022/02/20 03:04:36;;;;;;;37.45;5.68;;;;;;;;;;5024115;28;20029;-50
2022/02/20 03:07:01;;;;;;;32.10;4.18;;;;;;;;;;5022610;28;21563;-52
2022/02/20 03:09:27;;;;;;;31.70;5.38;;;;;;;;;;5026803;28;20037;-51
2022/02/20 03:11:53;;;;;;;71.68;6.60;;;;;;;;;;5022623;28;20056;-51
2022/02/20 03:14:19;;;;;;;36.63;5.35;;;;;;;;;;5024818;28;20488;-54
2022/02/20 03:16:44;;;;;;;31.52;4.93;;;;;;;;;;5020853;28;20456;-53
2022/02/20 03:19:10;;;;;;;42.65;6.18;;;;;;;;;;5025989;28;20116;-53
2022/02/20 03:21:36;;;;;;;60.42;5.38;;;;;;;;;;5021176;28;20381;-50
2022/02/20 03:24:01;;;;;;;45.47;4.75;;;;;;;;;;5026067;28;20124;-53
2022/02/20 03:26:27;;;;;;;35.03;4.45;;;;;;;;;;5021397;28;20041;-54
2022/02/20 03:28:52;;;;;;;42.17;5.50;;;;;;;;;;5026787;28;20136;-53
2022/02/20 03:31:18;;;;;;;35.70;5.50;;;;;;;;;;5020689;28;20045;-53
2022/02/20 03:33:43;;;;;;;47.60;6.25;;;;;;;;;;5023451;28;20555;-53
2022/02/20 03:36:09;;;;;;;35.10;5.30;;;;;;;;;;5024444;28;20041;-53
2022/02/20 03:38:35;;;;;;;49.30;6.45;;;;;;;;;;5026479;28;20044;-53
2022/02/20 03:41:01;;;;;;;37.60;4.10;;;;;;;;;;5021943;28;20032;-53
2022/02/20 03:43:27;;;;;;;37.45;5.00;;;;;;;;;;5021510;28;20493;-54
2022/02/20 03:45:52;;;;;;;36.72;4.22;;;;;;;;;;5024231;28;20068;-49
2022/02/20 03:48:18;;;;;;;39.45;5.18;;;;;;;;;;5021301;28;20034;-52
2022/02/20 03:50:44;;;;;;;40.47;4.97;;;;;;;;;;5019691;28;20133;-50
2022/02/20 03:53:09;;;;;;;40.40;4.97;;;;;;;;;;5025137;28;20033;-49
2022/02/20 03:55:35;;;;;;;35.92;5.50;;;;;;;;;;5024274;28;20029;-50
2022/02/20 03:58:00;;;;;;;22.95;2.90;;;;;;;;;;5019970;28;20103;-53
2022/02/20 04:00:27;;;;;;;30.95;4.85;;;;;;;;;;5024929;28;20121;-55
2022/02/20 04:02:52;;;;;;;29.27;3.67;;;;;;;;;;5024494;28;20061;-51
2022/02/20 04:05:19;;;;;;;35.17;3.90;;;;;;;;;;5023581;28;20075;-50
2022/02/20 04:07:45;;;;;;;36.42;5.95;;;;;;;;;;5022654;28;20044;-53
2022/02/20 04:10:12;;;;;;;38.28;4.45;;;;;;;;;;5023176;28;20029;-54
2022/02/20 04:12:38;;;;;;;22.95;3.20;;;;;;;;;;5020065;28;20033;-52
2022/02/20 04:15:07;;;;;;;27.58;3.60;;;;;;;;;;5021833;28;20041;-50
2022/02/20 04:17:44;;;;;;;32.55;4.25;;;;;;;;;;5021998;28;20033;-51
2022/02/20 04:20:15;;;;;;;26.42;3.35;;;;;;;;;;5022463;28;20017;-53
2022/02/20 04:22:42;;;;;;;26.17;3.67;;;;;;;;;;5022397;28;20048;-50
2022/02/20 04:25:09;;;;;;;19.70;2.95;;;;;;;;;;5024443;28;20033;-55
2022/02/20 04:27:35;;;;;;;12.75;2.97;;;;;;;;;;5022118;28;20263;-53
2022/02/20 04:30:00;;;;;;;19.20;2.83;;;;;;;;;;5021474;28;20631;-49
2022/02/20 04:32:26;;;;;;;20.33;4.25;;;;;;;;;;5020788;28;20041;-52
2022/02/20 04:34:52;;;;;;;15.68;3.08;;;;;;;;;;5024198;28;20053;-52
2022/02/20 04:37:17;;;;;;;22.55;2.92;;;;;;;;;;5022324;28;20033;-52
2022/02/20 04:39:43;;;;;;;9.98;2.47;;;;;;;;;;5022213;28;20391;-53
2022/02/20 04:42:08;;;;;;;24.92;2.55;;;;;;;;;;5021098;28;20120;-53
2022/02/20 04:44:34;;;;;;;13.75;2.08;;;;;;;;;;5015765;28;20033;-54
2022/02/20 04:46:59;;;;;;;8.82;1.90;;;;;;;;;;5021792;28;20392;-53
2022/02/20 04:49:25;;;;;;;11.85;2.20;;;;;;;;;;5021072;28;20045;-52
2022/02/20 04:51:50;;;;;;;13.60;1.88;;;;;;;;;;5022881;28;20072;-53
2022/02/20 04:54:16;;;;;;;9.20;2.30;;;;;;;;;;5022309;28;20036;-51
2022/02/20 04:56:45;;;;;;;13.00;1.95;;;;;;;;;;5022967;28;20030;-49
2022/02/20 04:59:12;;;;;;;9.05;2.25;;;;;;;;;;5024386;28;20472;-50
2022/02/20 05:01:38;;;;;;;11.68;1.88;;;;;;;;;;5022710;28;20392;-51
2022/02/20 05:04:04;;;;;;;13.05;2.08;;;;;;;;;;5017854;28;20396;-49
2022/02/20 05:06:30;;;;;;;12.20;2.20;;;;;;;;;;5020621;28;20514;-49
2022/02/20 05:08:56;;;;;;;8.30;1.98;;;;;;;;;;5021556;28;20045;-49
2022/02/20 05:11:24;;;;;;;9.60;1.80;;;;;;;;;;5018371;28;20076;-53
2022/02/20 05:13:54;;;;;;;12.07;2.50;;;;;;;;;;5026966;28;20029;-49
2022/02/20 05:16:23;;;;;;;8.48;2.13;;;;;;;;;;5029546;28;20037;-54
2022/02/20 05:18:48;;;;;;;12.27;1.83;;;;;;;;;;5024366;28;20034;-51
2022/02/20 05:21:14;;;;;;;8.32;2.30;;;;;;;;;;5021579;28;20024;-50
2022/02/20 05:23:39;;;;;;;11.05;1.48;;;;;;;;;;5029115;28;20026;-52
2022/02/20 05:26:05;;;;;;;13.13;2.10;;;;;;;;;;5024185;28;20414;-54
2022/02/20 05:28:31;;;;;;;15.52;2.28;;;;;;;;;;5021234;28;20072;-52
2022/02/20 05:30:57;;;;;;;18.02;2.53;;;;;;;;;;5022610;28;20308;-53
2022/02/20 05:33:22;;;;;;;13.02;1.77;;;;;;;;;;5022429;28;20644;-49
2022/02/20 05:35:48;;;;;;;7.78;1.75;;;;;;;;;;5024456;28;20030;-54
2022/02/20 05:38:16;;;;;;;13.32;2.67;;;;;;;;;;5024316;28;20059;-52
2022/02/20 05:40:41;;;;;;;12.65;2.42;;;;;;;;;;5024616;28;20033;-54
2022/02/20 05:43:07;;;;;;;14.23;3.65;;;;;;;;;;5025898;28;20065;-49
2022/02/20 05:45:32;;;;;;;25.95;2.63;;;;;;;;;;5025437;28;20033;-54
2022/02/20 05:47:58;;;;;;;16.20;2.50;;;;;;;;;;5019041;28;20024;-55
2022/02/20 05:50:24;;;;;;;13.65;2.47;;;;;;;;;;5022582;28;20041;-53
2022/02/20 05:52:50;;;;;;;13.65;2.58;;;;;;;;;;5025423;28;20029;-54
2022/02/20 05:55:15;;;;;;;15.77;3.25;;;;;;;;;;5026074;28;20137;-54
2022/02/20 05:57:49;;;;;;;18.95;2.97;;;;;;;;;;5024964;28;20060;-55
2022/02/20 06:00:16;;;;;;;18.60;3.05;;;;;;;;;;5027242;28;20029;-54
2022/02/20 06:02:42;;;;;;;13.15;2.40;;;;;;;;;;5023111;28;20049;-55
2022/02/20 06:05:09;;;;;;;21.35;2.75;;;;;;;;;;5026811;28;20440;-50
2022/02/20 06:07:35;;;;;;;16.35;2.80;;;;;;;;;;5023255;28;20488;-53
2022/02/20 06:10:02;;;;;;;10.82;1.88;;;;;;;;;;5025353;28;20076;-53
2022/02/20 06:12:28;;;;;;;14.65;2.00;;;;;;;;;;5026258;28;20041;-53
2022/02/20 06:14:54;;;;;;;14.55;2.28;;;;;;;;;;5028888;28;20408;-53
2022/02/20 06:17:19;;;;;;;15.02;2.72;;;;;;;;;;5025734;28;20041;-52
2022/02/20 06:19:45;;;;;;;19.75;2.10;;;;;;;;;;5023576;28;20029;-51
2022/02/20 06:22:11;;;;;;;9.13;1.70;;;;;;;;;;5023418;28;20058;-52
2022/02/20 06:24:37;;;;;;;12.35;2.47;;;;;;;;;;5024394;28;20073;-50
2022/02/20 06:27:03;;;;;;;13.55;2.20;;;;;;;;;;5018333;28;20542;-51
2022/02/20 06:29:28;;;;;;;7.47;1.60;;;;;;;;;;5003291;28;20570;-52
2022/02/20 06:31:54;;;;;;;10.25;2.17;;;;;;;;;;5025745;28;20503;-53
2022/02/20 06:34:19;;;;;;;20.52;2.30;;;;;;;;;;5025701;28;20116;-55
2022/02/20 06:36:45;;;;;;;13.63;1.38;;;;;;;;;;5024393;28;20030;-54
2022/02/20 06:39:10;;;;;;;9.23;1.80;;;;;;;;;;5020546;28;20438;-54
2022/02/20 06:41:39;;;;;;;8.38;1.80;;;;;;;;;;5023275;28;20036;-54
2022/02/20 06:44:05;;;;;;;16.13;2.38;;;;;;;;;;5020077;28;20062;-53
2022/02/20 06:46:31;;;;;;;12.68;2.33;;;;;;;;;;5029754;28;20060;-59
2022/02/20 06:48:56;;;;;;;13.63;2.55;;;;;;;;;;5023403;28;20673;-52
2022/02/20 06:51:22;;;;;;;13.93;2.30;;;;;;;;;;5021168;28;20042;-53
2022/02/20 06:53:47;;;;;;;15.25;1.60;;;;;;;;;;5022196;28;20029;-53
2022/02/20 06:56:13;;;;;;;10.38;1.90;;;;;;;;;;5022328;28;20037;-53
2022/02/20 06:58:38;;;;;;;10.13;1.15;;;;;;;;;;5024851;28;20049;-53
2022/02/20 07:01:04;;;;;;;10.57;1.80;;;;;;;;;;5023284;28;20527;-53
2022/02/20 07:03:30;;;;;;;8.98;1.65;;;;;;;;;;5025120;28;20041;-53
2022/02/20 07:05:55;;;;;;;9.48;1.63;;;;;;;;;;5028378;28;20483;-52
2022/02/20 07:08:21;;;;;;;13.07;2.72;;;;;;;;;;5021579;28;20041;-53
2022/02/20 07:10:46;;;;;;;6.75;1.15;;;;;;;;;;5023492;28;20029;-52
2022/02/20 07:13:12;;;;;;;9.32;2.00;;;;;;;;;;5023683;28;20491;-49
2022/02/20 07:15:37;;;;;;;8.13;1.40;;;;;;;;;;5023715;28;20037;-53
2022/02/20 07:18:04;;;;;;;14.00;1.60;;;;;;;;;;5022019;28;20037;-50
2022/02/20 07:20:30;;;;;;;10.70;1.48;;;;;;;;;;5022169;28;20048;-51
2022/02/20 07:22:55;;;;;;;8.15;0.95;;;;;;;;;;5017460;28;20065;-51
2022/02/20 07:25:21;;;;;;;5.97;1.08;;;;;;;;;;5021575;28;20069;-50
2022/02/20 07:27:53;;;;;;;8.77;1.58;;;;;;;;;;5019419;28;20029;-49
2022/02/20 07:30:19;;;;;;;9.43;1.35;;;;;;;;;;5022056;28;20081;-48
2022/02/20 07:32:45;;;;;;;13.63;1.75;;;;;;;;;;5018804;28;20407;-52
2022/02/20 07:35:11;;;;;;;6.68;1.40;;;;;;;;;;5016158;28;20041;-51
2022/02/20 07:37:36;;;;;;;6.88;1.20;;;;;;;;;;5019873;28;20647;-51
2022/02/20 07:40:03;;;;;;;6.38;1.60;;;;;;;;;;5022872;28;20022;-50
2022/02/20 07:42:29;;;;;;;3.75;1.00;;;;;;;;;;5023186;28;20040;-53
2022/02/20 07:44:54;;;;;;;12.10;1.40;;;;;;;;;;5020214;28;20033;-51
2022/02/20 07:47:20;;;;;;;13.85;1.48;;;;;;;;;;5018536;28;20045;-48
2022/02/20 07:49:46;;;;;;;10.50;1.38;;;;;;;;;;5022455;28;20126;-49
2022/02/20 07:52:11;;;;;;;9.80;1.75;;;;;;;;;;5021085;28;20033;-54
2022/02/20 07:54:37;;;;;;;4.32;0.95;;;;;;;;;;5019676;28;20026;-54
2022/02/20 07:57:03;;;;;;;13.90;1.65;;;;;;;;;;5021767;28;20041;-55
2022/02/20 07:59:28;;;;;;;9.23;1.95;;;;;;;;;;5019723;28;20033;-53
2022/02/20 08:01:54;;;;;;;5.55;1.15;;;;;;;;;;5023002;28;20028;-53
2022/02/20 08:04:19;;;;;;;3.92;1.10;;;;;;;;;;5016002;28;20029;-52
2022/02/20 08:06:45;;;;;;;10.77;1.52;;;;;;;;;;5018696;28;20033;-52
2022/02/20 08:09:11;;;;;;;7.22;1.00;;;;;;;;;;5021110;28;20084;-52
2022/02/20 08:11:37;;;;;;;8.70;1.20;;;;;;;;;;5021521;28;20092;-53
2022/02/20 08:14:02;;;;;;;4.35;1.05;;;;;;;;;;5025513;28;20025;-52
2022/02/20 08:16:28;;;;;;;9.00;1.27;;;;;;;;;;5024990;28;20034;-51
2022/02/20 08:18:53;;;;;;;8.45;1.73;;;;;;;;;;5022833;28;20467;-51
2022/02/20 08:21:19;;;;;;;7.78;2.33;;;;;;;;;;5023492;28;20080;-54
2022/02/20 08:23:48;;;;;;;11.10;1.48;;;;;;;;;;5021304;28;20529;-50
2022/02/20 08:26:14;;;;;;;5.88;1.40;;;;;;;;;;5019991;28;20425;-49
2022/02/20 08:28:40;;;;;;;5.53;1.33;;;;;;;;;;5022658;28;20355;-52
2022/02/20 08:31:05;;;;;;;8.15;1.90;;;;;;;;;;5017666;28;20500;-50
2022/02/20 08:33:31;;;;;;;8.68;1.42;;;;;;;;;;5023028;28;20041;-49
2022/02/20 08:35:59;;;;;;;8.00;1.35;;;;;;;;;;5021067;28;20033;-49
2022/02/20 08:38:24;;;;;;;13.93;2.67;;;;;;;;;;5022781;28;20116;-49
2022/02/20 08:40:51;;;;;;;14.77;1.80;;;;;;;;;;5024206;28;20147;-48
2022/02/20 08:43:18;;;;;;;7.78;1.60;;;;;;;;;;5021654;28;20589;-49
2022/02/20 08:45:46;;;;;;;6.85;1.33;;;;;;;;;;5020502;28;20100;-51
2022/02/20 08:48:12;;;;;;;6.30;1.23;;;;;;;;;;5024474;28;20111;-51
2022/02/20 08:50:42;;;;;;;6.50;1.63;;;;;;;;;;5022934;28;20113;-50
2022/02/20 08:53:09;;;;;;;5.93;1.90;;;;;;;;;;5023562;28;20087;-48
2022/02/20 08:55:34;;;;;;;4.22;1.10;;;;;;;;;;5025202;28;20083;-47
2022/02/20 08:58:00;;;;;;;12.30;2.03;;;;;;;;;;5023738;28;20496;-56
2022/02/20 09:00:25;;;;;;;9.63;1.35;;;;;;;;;;5025155;28;20294;-52
2022/02/20 09:02:51;;;;;;;7.15;1.63;;;;;;;;;;5026018;28;20087;-51
2022/02/20 09:05:17;;;;;;;11.88;1.90;;;;;;;;;;5026958;28;20046;-53
2022/02/20 09:07:42;;;;;;;11.65;2.03;;;;;;;;;;5024994;28;20037;-48
2022/02/20 09:10:09;;;;;;;21.50;3.15;;;;;;;;;;5021572;28;21293;-52
2022/02/20 09:12:36;;;;;;;12.15;2.03;;;;;;;;;;5025148;28;20083;-53
2022/02/20 09:15:03;;;;;;;8.80;1.98;;;;;;;;;;5026565;28;20076;-49
2022/02/20 09:17:29;;;;;;;11.50;2.10;;;;;;;;;;5024005;28;20044;-51
2022/02/20 09:19:54;;;;;;;13.32;1.85;;;;;;;;;;5026282;28;20045;-52
2022/02/20 09:22:20;;;;;;;10.07;2.00;;;;;;;;;;5028005;28;20025;-50
2022/02/20 09:24:45;;;;;;;15.43;2.03;;;;;;;;;;5024867;28;20550;-52
2022/02/20 09:27:11;;;;;;;7.28;1.55;;;;;;;;;;5015825;28;20099;-52
2022/02/20 09:29:36;;;;;;;10.77;2.05;;;;;;;;;;5029087;28;20205;-52
2022/02/20 09:32:03;;;;;;;13.02;1.85;;;;;;;;;;5026023;28;20040;-48
2022/02/20 09:34:29;;;;;;;10.70;2.17;;;;;;;;;;5025358;28;20108;-51
2022/02/20 09:36:54;;;;;;;13.02;2.17;;;;;;;;;;5022838;28;20059;-53
2022/02/20 09:39:20;;;;;;;30.80;3.45;;;;;;;;;;5022601;28;20041;-48
2022/02/20 09:41:46;;;;;;;11.50;1.88;;;;;;;;;;5021788;28;20037;-52
2022/02/20 09:44:11;;;;;;;13.13;2.10;;;;;;;;;;5021907;28;20132;-49
2022/02/20 09:46:41;;;;;;;11.32;2.00;;;;;;;;;;5026347;28;20515;-51
2022/02/20 09:49:07;;;;;;;14.07;2.08;;;;;;;;;;5023206;28;20029;-51
2022/02/20 09:51:33;;;;;;;11.55;1.95;;;;;;;;;;5018755;28;20039;-52
2022/02/20 09:53:58;;;;;;;12.52;2.70;;;;;;;;;;5026406;28;20037;-52
2022/02/20 09:56:24;;;;;;;20.13;2.10;;;;;;;;;;5021979;28;20041;-52
2022/02/20 09:58:50;;;;;;;11.10;1.98;;;;;;;;;;5025386;28;20484;-51
2022/02/20 10:01:17;;;;;;;15.88;2.55;;;;;;;;;;5028774;28;20066;-51
2022/02/20 10:03:47;;;;;;;24.58;2.67;;;;;;;;;;5025937;28;20400;-53
2022/02/20 10:06:18;;;;;;;19.77;3.00;;;;;;;;;;5017828;28;20052;-50
2022/02/20 10:08:52;;;;;;;12.05;2.05;;;;;;;;;;5026194;28;20029;-53
2022/02/20 10:11:20;;;;;;;20.27;2.67;;;;;;;;;;5022219;28;20041;-53
2022/02/20 10:13:48;;;;;;;15.05;2.50;;;;;;;;;;5022603;28;20045;-49
2022/02/20 10:16:27;;;;;;;12.57;2.15;;;;;;;;;;5024105;28;20407;-53
2022/02/20 10:18:56;;;;;;;22.13;3.17;;;;;;;;;;5022279;28;20082;-48
2022/02/20 10:21:23;;;;;;;16.55;2.50;;;;;;;;;;5026541;28;20109;-52
2022/02/20 10:23:50;;;;;;;17.42;2.60;;;;;;;;;;5025893;28;20480;-53
2022/02/20 10:26:27;;;;;;;11.75;1.70;;;;;;;;;;5019723;28;20029;-52
2022/02/20 10:29:05;;;;;;;15.45;2.47;;;;;;;;;;5019109;28;20025;-51
2022/02/20 10:31:53;;;;;;;13.02;2.70;;;;;;;;;;5024133;28;20049;-52
2022/02/20 10:34:27;;;;;;;13.98;2.33;;;;;;;;;;5029229;28;20047;-53
2022/02/20 10:36:56;;;;;;;6.57;1.15;;;;;;;;;;5024784;28;20487;-53
2022/02/20 10:39:33;;;;;;;10.27;1.10;;;;;;;;;;5017874;28;20029;-53
2022/02/20 10:42:24;;;;;;;6.65;1.13;;;;;;;;;;5026856;28;20060;-53
2022/02/20 10:44:52;;;;;;;2.42;0.70;;;;;;;;;;5026534;28;20032;-49
2022/02/20 10:47:18;;;;;;;2.70;1.15;;;;;;;;;;5023677;28;20432;-50
2022/02/20 10:49:43;;;;;;;6.30;1.17;;;;;;;;;;5020255;28;20032;-50
2022/02/20 10:52:29;;;;;;;7.75;1.00;;;;;;;;;;5019767;28;20037;-53
2022/02/20 10:55:07;;;;;;;7.90;1.20;;;;;;;;;;5028635;28;20404;-53
2022/02/20 10:57:34;;;;;;;5.82;1.13;;;;;;;;;;5029821;28;20042;-51
2022/02/20 11:00:11;;;;;;;6.78;0.82;;;;;;;;;;5025454;28;20080;-52
2022/02/20 11:02:37;;;;;;;8.63;1.67;;;;;;;;;;5026246;28;20037;-53
2022/02/20 11:05:03;;;;;;;8.85;0.98;;;;;;;;;;5021822;28;20029;-53
2022/02/20 11:07:29;;;;;;;5.63;0.80;;;;;;;;;;5023667;28;20025;-50
2022/02/20 11:09:54;;;;;;;4.47;0.90;;;;;;;;;;5022591;28;20030;-56
2022/02/20 11:12:21;;;;;;;4.13;1.13;;;;;;;;;;5017675;28;20037;-53
2022/02/20 11:14:47;;;;;;;6.97;1.10;;;;;;;;;;5024640;28;20071;-52
2022/02/20 11:17:15;;;;;;;3.42;1.23;;;;;;;;;;5020612;28;20069;-53
2022/02/20 11:19:47;;;;;;;7.75;1.70;;;;;;;;;;5012578;28;20029;-54
2022/02/20 11:22:18;;;;;;;2.03;0.57;;;;;;;;;;5023937;28;20052;-55
2022/02/20 11:24:51;;;;;;;9.13;1.13;;;;;;;;;;5022935;28;20044;-52
2022/02/20 11:27:18;;;;;;;;;;;;;;;;;;5020793;28;20105;-54
2022/02/20 11:29:43;;;;;;;2.65;0.60;;;;;;;;;;5026951;28;20354;-53
2022/02/20 11:32:16;;;;;;;2.25;0.95;;;;;;;;;;5024872;28;20074;-53
2022/02/20 11:34:48;;;;;;;4.43;1.13;;;;;;;;;;5025298;28;20491;-53
2022/02/20 11:37:19;;;;;;;2.58;0.80;;;;;;;;;;5023852;28;20038;-54
2022/02/20 11:40:04;;;;;;;5.40;0.73;;;;;;;;;;5026928;28;20060;-54
2022/02/20 11:42:39;;;;;;;5.55;0.80;;;;;;;;;;5016063;28;20033;-53
2022/02/20 11:45:06;;;;;;;5.95;0.77;;;;;;;;;;5020954;28;20042;-53
2022/02/20 11:47:38;;;;;;;8.18;1.77;;;;;;;;;;5022739;28;20041;-53
2022/02/20 11:50:15;;;;;;;3.65;0.82;;;;;;;;;;5020835;28;20064;-54
2022/02/20 11:52:50;;;;;;;2.63;0.60;;;;;;;;;;5020271;28;20033;-56
2022/02/20 11:55:27;;;;;;;7.75;0.75;;;;;;;;;;5024713;28;20025;-55
2022/02/20 11:58:16;;;;;;;3.45;0.60;;;;;;;;;;5020859;28;20032;-54
2022/02/20 12:00:54;;;;;;;5.78;0.50;;;;;;;;;;5017901;28;20480;-56
2022/02/20 12:03:23;;;;;;;1.52;0.60;;;;;;;;;;5024460;28;20404;-56
2022/02/20 12:06:08;;;;;;;3.58;0.95;;;;;;;;;;5022882;28;20498;-56
2022/02/20 12:09:01;;;;;;;3.60;0.55;;;;;;;;;;5023512;28;20442;-57
2022/02/20 12:11:49;;;;;;;1.33;0.57;;;;;;;;;;5018271;28;20044;-56
2022/02/20 12:14:15;;;;;;;3.03;0.60;;;;;;;;;;5025047;28;20061;-56
2022/02/20 12:16:46;;;;;;;1.08;0.38;;;;;;;;;;5021020;28;20033;-59
2022/02/20 12:19:16;;;;;;;5.13;0.90;;;;;;;;;;5021354;28;20091;-56
2022/02/20 12:21:53;;;;;;;0.20;0.20;;;;;;;;;;5019729;28;20036;-56
2022/02/20 12:24:21;;;;;;;3.28;1.55;;;;;;;;;;5023602;28;20544;-56
2022/02/20 12:26:55;;;;;;;4.22;1.35;;;;;;;;;;5021010;28;20104;-55
2022/02/20 12:29:24;;;;;;;2.85;1.00;;;;;;;;;;5020075;28;20119;-55
2022/02/20 12:32:06;;;;;;;10.25;1.08;;;;;;;;;;5019637;28;20496;-55
2022/02/20 12:34:55;;;;;;;4.18;1.02;;;;;;;;;;5020298;28;20030;-55
2022/02/20 12:37:33;;;;;;;4.68;1.10;;;;;;;;;;5018142;28;20703;-55
2022/02/20 12:40:00;;;;;;;5.57;1.13;;;;;;;;;;5021323;28;20343;-54
2022/02/20 12:42:28;;;;;;;7.82;1.90;;;;;;;;;;5021061;28;20033;-51
2022/02/20 12:45:13;;;;;;;8.27;1.58;;;;;;;;;;5018230;28;20082;-53
2022/02/20 12:47:40;;;;;;;7.72;1.30;;;;;;;;;;5020505;28;20120;-54
2022/02/20 12:50:10;;;;;;;9.07;2.22;;;;;;;;;;5016301;28;20045;-53
2022/02/20 12:52:37;;;;;;;9.45;1.77;;;;;;;;;;5020460;28;20025;-51
2022/02/20 12:55:04;;;;;;;9.30;1.77;;;;;;;;;;5022603;28;20025;-51
2022/02/20 12:57:36;;;;;;;11.40;2.42;;;;;;;;;;5024374;28;20040;-52
2022/02/20 13:00:05;;;;;;;13.93;1.95;;;;;;;;;;5020664;28;20037;-53
2022/02/20 13:02:31;;;;;;;13.20;1.90;;;;;;;;;;5016074;28;20037;-52
2022/02/20 13:05:04;;;;;;;6.60;1.60;;;;;;;;;;5016601;28;20643;-53
2022/02/20 13:07:39;;;;;;;22.40;2.40;;;;;;;;;;5014191;28;20033;-51
2022/02/20 13:10:05;;;;;;;9.35;2.22;;;;;;;;;;5013175;28;20529;-50
2022/02/20 13:12:31;;;;;;;21.48;3.67;;;;;;;;;;5011280;28;20869;-53
2022/02/20 13:15:02;;;;;;;12.70;3.15;;;;;;;;;;5019161;28;20276;-50
2022/02/20 13:17:52;;;;;;;13.20;3.10;;;;;;;;;;5010419;28;20030;-53
2022/02/20 13:20:33;;;;;;;8.93;1.73;;;;;;;;;;5019515;28;20021;-54
2022/02/20 13:23:12;;;;;;;11.73;3.00;;;;;;;;;;5017053;28;20026;-51
2022/02/20 13:25:38;;;;;;;13.38;2.33;;;;;;;;;;5018712;28;20025;-51
2022/02/20 13:28:05;;;;;;;21.15;2.90;;;;;;;;;;5011294;28;20810;-50
2022/02/20 13:30:34;;;;;;;14.82;2.65;;;;;;;;;;5016952;28;20119;-52
2022/02/20 13:33:15;;;;;;;12.88;2.40;;;;;;;;;;5014295;28;20107;-52
2022/02/20 13:35:42;;;;;;;23.65;2.75;;;;;;;;;;5019203;28;20041;-48
2022/02/20 13:38:11;;;;;;;11.23;2.30;;;;;;;;;;5020901;28;20124;-52
2022/02/20 13:40:38;;;;;;;16.83;2.63;;;;;;;;;;5024266;28;20029;-52
2022/02/20 13:43:15;;;;;;;11.45;2.70;;;;;;;;;;5018529;28;20029;-50
2022/02/20 13:45:53;;;;;;;12.93;1.90;;;;;;;;;;5020878;28;20052;-52
2022/02/20 13:48:38;;;;;;;20.73;3.05;;;;;;;;;;5021599;28;20502;-53
2022/02/20 13:51:13;;;;;;;18.38;2.63;;;;;;;;;;5022817;28;20109;-51
2022/02/20 13:53:45;;;;;;;25.27;3.40;;;;;;;;;;5016742;28;20055;-53
2022/02/20 13:56:35;;;;;;;13.60;2.47;;;;;;;;;;5018378;28;20495;-52
2022/02/20 13:59:01;;;;;;;16.13;3.60;;;;;;;;;;5014881;28;20476;-53
2022/02/20 14:01:43;;;;;;;15.55;2.58;;;;;;;;;;5014701;28;20180;-53
2022/02/20 14:04:18;;;;;;;14.63;2.38;;;;;;;;;;5020966;28;20052;-52
2022/02/20 14:06:44;;;;;;;15.98;2.67;;;;;;;;;;5020303;28;20124;-52
2022/02/20 14:09:12;;;;;;;16.35;2.13;;;;;;;;;;5021295;28;20104;-54
2022/02/20 14:11:39;;;;;;;22.42;3.90;;;;;;;;;;5025672;28;20064;-49
2022/02/20 14:14:28;;;;;;;19.17;4.70;;;;;;;;;;5023637;28;20045;-49
2022/02/20 14:16:58;;;;;;;25.23;3.47;;;;;;;;;;5023529;28;20094;-53
2022/02/20 14:19:24;;;;;;;19.75;3.97;;;;;;;;;;5023553;28;20025;-54
2022/02/20 14:21:58;;;;;;;28.42;3.70;;;;;;;;;;5028089;28;20035;-50
2022/02/20 14:24:25;;;;;;;20.48;3.53;;;;;;;;;;5024692;28;20064;-51
2022/02/20 14:26:51;;;;;;;22.15;4.00;;;;;;;;;;5023959;28;20040;-51
2022/02/20 14:29:24;;;;;;;21.98;3.22;;;;;;;;;;5022412;28;20034;-50
2022/02/20 14:32:02;;;;;;;24.38;3.22;;;;;;;;;;5017374;28;20133;-49
2022/02/20 14:34:28;;;;;;;19.45;3.38;;;;;;;;;;5021376;28;20030;-49
2022/02/20 14:37:05;;;;;;;44.53;5.65;;;;;;;;;;5026206;28;20119;-52
2022/02/20 14:39:30;;;;;;;28.48;4.10;;;;;;;;;;5024050;28;20034;-53